»·PEaware :: N717TS KCWV-KATL

N717TS :: KCWV-KATL

FLIGHT INFORMATION

Flight Status: Arrived
Operator: Privately registered:
United States
More flights under this callsign
Pilot: Ty S. (2873)
Aircraft: Unknown
(PIPA)
More flights by this aircraft type
Origin: KCWV Claxton-Evans Co
United States
Destination: KATL Hartsfield-Jackson Atlanta
United States
More flights between these airports :: More routes between these airports
Route:
File this flight plan on PilotEdge
Remarks:
Altitude:
(Current/Filed)
0ft
Speed:
(Current/Filed)
0kts
Departed: 28-Jan-17 08:56 AM
Arrived: 28-Jan-17 09:51 AM
Distance/Time
Traveled:
156nm/0:55
Distance/Time
To Go:
Arrived

Flight Plot

Page will automatically refresh every two minutes.

Flight plan parsing failed; only flown route is shown


Map Options




Map Legend


Flown Route
Filed Route
Departure Airport
Arrival Airport
Navaid (VOR, NDB)
Fix

Horizontal Profiles

Position Reports

Time Latitude Longitude Heading Altitude Ground
Speed
28-Jan-17 08:55 32.195336 -81.872151 269 335ft 83kts
28-Jan-17 08:56 32.208024 -81.895137 328 1558ft 103kts
28-Jan-17 08:57 32.226387 -81.921374 292 2821ft 105kts
28-Jan-17 08:58 32.241509 -81.949812 299 4098ft 105kts
28-Jan-17 08:59 32.257752 -81.975523 297 5394ft 97kts
28-Jan-17 09:00 32.273589 -82.001269 296 6662ft 97kts
28-Jan-17 09:01 32.289034 -82.026823 295 7868ft 96kts
28-Jan-17 09:02 32.309639 -82.061738 299 8002ft 158kts
28-Jan-17 09:03 32.336884 -82.107948 299 8000ft 180kts
28-Jan-17 09:04 32.366196 -82.157471 299 8000ft 186kts
28-Jan-17 09:05 32.395747 -82.208052 299 8008ft 187kts
28-Jan-17 09:06 32.425290 -82.259021 299 8000ft 188kts
28-Jan-17 09:07 32.454803 -82.310178 299 7999ft 188kts
28-Jan-17 09:08 32.482970 -82.359155 298 7999ft 188kts
28-Jan-17 09:09 32.510368 -82.406900 298 7998ft 187kts
28-Jan-17 09:10 32.539670 -82.458055 298 7998ft 187kts
28-Jan-17 09:11 32.568911 -82.509188 298 7997ft 187kts
28-Jan-17 09:12 32.598104 -82.560311 298 7996ft 187kts
28-Jan-17 09:13 32.627281 -82.611485 298 7985ft 187kts
28-Jan-17 09:14 32.656493 -82.662788 298 7969ft 187kts
28-Jan-17 09:15 32.685531 -82.713863 299 7969ft 187kts
28-Jan-17 09:16 32.714599 -82.765053 299 7968ft 186kts
28-Jan-17 09:17 32.743491 -82.816002 299 7968ft 186kts
28-Jan-17 09:18 32.772464 -82.867168 298 7968ft 186kts
28-Jan-17 09:19 32.801399 -82.918336 298 7967ft 186kts
28-Jan-17 09:20 32.830210 -82.969353 298 7967ft 186kts
28-Jan-17 09:21 32.859054 -83.020501 298 7967ft 186kts
28-Jan-17 09:22 32.887891 -83.071707 298 7967ft 186kts
28-Jan-17 09:23 32.916708 -83.122619 298 7972ft 187kts
28-Jan-17 09:24 32.945854 -83.173896 298 7972ft 187kts
28-Jan-17 09:25 32.974939 -83.225426 298 7995ft 186kts
28-Jan-17 09:26 33.003780 -83.276756 298 7999ft 187kts
28-Jan-17 09:27 33.032587 -83.328174 298 7998ft 187kts
28-Jan-17 09:28 33.061366 -83.379655 298 7998ft 187kts
28-Jan-17 09:29 33.088065 -83.427479 298 8511ft 177kts
28-Jan-17 09:30 33.115878 -83.477430 298 8510ft 184kts
28-Jan-17 09:31 33.144304 -83.528573 298 8489ft 186kts
28-Jan-17 09:32 33.173389 -83.580925 299 8070ft 196kts
28-Jan-17 09:33 33.203885 -83.635873 299 7268ft 200kts
28-Jan-17 09:34 33.234530 -83.691174 299 6463ft 199kts
28-Jan-17 09:35 33.265035 -83.746314 299 5656ft 198kts
28-Jan-17 09:36 33.295264 -83.801042 299 4850ft 197kts
28-Jan-17 09:37 33.325388 -83.855660 299 4038ft 194kts
28-Jan-17 09:38 33.355314 -83.910440 304 3227ft 197kts
28-Jan-17 09:39 33.384672 -83.963637 304 2955ft 192kts
28-Jan-17 09:40 33.414324 -84.017539 304 2954ft 195kts
28-Jan-17 09:41 33.444064 -84.071749 304 2954ft 195kts
28-Jan-17 09:42 33.478145 -84.121376 319 2955ft 195kts
28-Jan-17 09:43 33.519615 -84.163336 319 2705ft 195kts
28-Jan-17 09:44 33.560694 -84.204865 319 2461ft 188kts
28-Jan-17 09:45 33.601342 -84.243369 319 2068ft 197kts
28-Jan-17 09:46 33.638078 -84.277847 319 1946ft 175kts
28-Jan-17 09:47 33.650206 -84.312325 268 1898ft 175kts
28-Jan-17 09:48 33.649226 -84.359489 271 1687ft 93kts
28-Jan-17 09:49 33.649620 -84.389652 271 1409ft 81kts
28-Jan-17 09:50 33.649538 -84.412653 272 1037ft 64kts
28-Jan-17 09:51 33.649758 -84.422216 315 1029ft 10kts
28-Jan-17 09:52 33.651996 -84.423073 313 1029ft 7kts
28-Jan-17 09:53 33.652270 -84.423418 287 1029ft 0kts

Navigation Log

Ident Type
Flight plan parsing failed, navigation log unavailable